Time;durP1;ratioP1;P1;durP2;ratioP2;P2;SDS_P1;SDS_P2;PMS_P1;PMS_P2;Temp;Humidity;BMP_temperature;BMP_pressure;BME280_temperature;BME280_humidity;BME280_pressure;Samples;Min_cycle;Max_cycle;Signal;HPM_P1;HPM_P2
2022/12/15 00:40:38;;;;;;;22.50;14.30;;;-3.40;99.90;;;;;;4950997;28;20043;-81
2022/12/15 00:43:04;;;;;;;23.25;14.27;;;-3.40;99.90;;;;;;4951255;28;20051;-82
2022/12/15 00:48:14;;;;;;;27.00;15.35;;;-3.40;99.90;;;;;;4950612;29;20054;-80
2022/12/15 00:50:51;;;;;;;23.10;14.55;;;-3.00;99.90;;;;;;4934518;29;20043;-81
2022/12/15 01:21:00;;;;;;;23.55;12.98;;;-3.20;99.90;;;;;;4967705;28;20138;-81
2022/12/15 01:23:26;;;;;;;21.25;13.45;;;-3.30;99.90;;;;;;4937055;29;20086;-81
2022/12/15 01:25:52;;;;;;;18.70;12.95;;;-2.80;99.90;;;;;;4948563;28;20085;-82
2022/12/15 01:28:20;;;;;;;17.67;12.23;;;-3.30;99.90;;;;;;4932189;29;20046;-81
2022/12/15 01:30:46;;;;;;;20.60;12.82;;;-3.40;99.90;;;;;;4952153;28;20621;-82
2022/12/15 01:33:12;;;;;;;21.58;13.50;;;-3.40;99.90;;;;;;4938094;29;20098;-81
2022/12/15 01:35:38;;;;;;;20.10;13.27;;;-3.40;99.90;;;;;;4948400;28;20039;-81
2022/12/15 01:38:04;;;;;;;20.75;13.00;;;-3.30;99.90;;;;;;4951540;28;20046;-81
2022/12/15 01:40:45;;;;;;;20.55;13.20;;;-3.40;99.90;;;;;;4952061;28;20035;-81
2022/12/15 01:43:15;;;;;;;21.23;13.75;;;-3.40;99.90;;;;;;4931922;29;20066;-81
2022/12/15 01:45:49;;;;;;;23.50;13.73;;;-3.40;99.90;;;;;;4930760;29;20047;-81
2022/12/15 01:48:33;;;;;;;21.25;13.00;;;-3.40;99.90;;;;;;4935584;28;20047;-81
2022/12/15 01:51:17;;;;;;;23.67;13.80;;;-3.40;99.90;;;;;;4949951;28;20054;-81
2022/12/15 01:54:00;;;;;;;20.60;13.38;;;-3.40;99.90;;;;;;4934148;29;20047;-81
2022/12/15 01:56:28;;;;;;;24.45;13.10;;;-3.50;99.90;;;;;;4947081;28;20055;-82
2022/12/15 01:58:58;;;;;;;21.83;12.85;;;-3.50;99.90;;;;;;4947472;28;20067;-81
2022/12/15 02:01:23;;;;;;;20.05;13.20;;;-3.50;99.90;;;;;;4949746;28;20126;-81
2022/12/15 02:03:49;;;;;;;19.00;12.27;;;-3.50;99.90;;;;;;4946685;28;20111;-81
2022/12/15 02:06:17;;;;;;;23.60;13.40;;;-3.10;99.90;;;;;;4931213;29;20035;-81
2022/12/15 02:08:45;;;;;;;22.35;13.02;;;-3.40;99.90;;;;;;4951034;29;20039;-82
2022/12/15 02:11:32;;;;;;;20.85;12.82;;;-3.50;99.90;;;;;;4949458;28;20051;-81
2022/12/15 02:14:04;;;;;;;21.13;12.85;;;-3.50;99.90;;;;;;4950737;29;20050;-81
2022/12/15 02:16:50;;;;;;;22.48;13.50;;;-2.60;99.90;;;;;;4948676;28;20047;-81
2022/12/15 02:19:41;;;;;;;;;;;-3.50;99.90;;;;;;4949449;28;20122;-80
2022/12/15 02:22:38;;;;;;;22.55;13.30;;;-3.50;99.90;;;;;;4949624;28;19926;-81
2022/12/15 02:25:12;;;;;;;;;;;-3.50;99.90;;;;;;4946137;28;20039;-81
2022/12/15 02:28:35;;;;;;;19.48;12.60;;;-3.50;99.90;;;;;;4946152;28;19919;-80
2022/12/15 02:34:04;;;;;;;21.15;13.88;;;-3.40;99.90;;;;;;4876120;29;20088;-81
2022/12/15 02:36:38;;;;;;;26.80;11.75;;;-3.50;99.90;;;;;;4936795;28;20051;-81
2022/12/15 02:39:04;;;;;;;22.00;12.38;;;-3.50;99.90;;;;;;4929875;29;20094;-80
2022/12/15 02:41:39;;;;;;;20.75;13.75;;;-3.50;99.90;;;;;;4947043;28;20051;-81
2022/12/15 02:44:14;;;;;;;25.65;13.52;;;-3.40;99.90;;;;;;4949295;28;20413;-82
2022/12/15 02:46:49;;;;;;;22.43;13.93;;;-3.40;99.90;;;;;;4949500;28;20090;-81
2022/12/15 02:49:34;;;;;;;19.95;13.55;;;-3.40;99.90;;;;;;4949448;28;20043;-81
2022/12/15 02:52:11;;;;;;;22.35;13.65;;;-3.00;99.90;;;;;;4930300;28;20044;-81
2022/12/15 02:55:07;;;;;;;18.35;12.90;;;-3.30;99.90;;;;;;4949768;28;20071;-81
2022/12/15 02:58:30;;;;;;;27.58;13.93;;;-3.40;99.90;;;;;;4931035;28;20039;-81
2022/12/15 03:01:04;;;;;;;24.08;13.63;;;-3.40;99.90;;;;;;4848790;29;20060;-81
2022/12/15 03:03:32;;;;;;;20.45;13.10;;;-3.30;99.90;;;;;;4861772;29;20049;-81
2022/12/15 03:06:01;;;;;;;21.42;13.30;;;-2.80;99.90;;;;;;4911541;29;20047;-81
2022/12/15 03:08:26;;;;;;;20.27;13.68;;;-3.30;99.90;;;;;;4950824;28;20061;-81
2022/12/15 03:10:53;;;;;;;19.75;12.27;;;-3.20;99.90;;;;;;4951350;28;20478;-81
2022/12/15 03:13:19;;;;;;;21.30;12.68;;;-3.40;99.90;;;;;;4937815;29;20043;-81
2022/12/15 03:15:45;;;;;;;23.55;13.38;;;-3.40;99.90;;;;;;4953162;28;20058;-81
2022/12/15 03:18:11;;;;;;;22.02;13.95;;;-3.30;99.90;;;;;;4952266;29;20047;-82
2022/12/15 03:20:36;;;;;;;20.38;13.95;;;-3.40;99.90;;;;;;4954448;28;20163;-81
2022/12/15 03:23:02;;;;;;;22.23;13.40;;;-3.30;99.90;;;;;;4951019;28;20049;-82
2022/12/15 03:25:28;;;;;;;20.98;12.98;;;-3.30;99.90;;;;;;4937374;28;20089;-81
2022/12/15 03:27:54;;;;;;;23.35;13.15;;;-3.40;99.90;;;;;;4949912;28;20039;-81
2022/12/15 03:30:19;;;;;;;21.98;13.43;;;-3.30;99.90;;;;;;4954091;28;20046;-81
2022/12/15 03:32:45;;;;;;;18.38;12.40;;;-3.30;99.90;;;;;;4934047;29;20035;-82
2022/12/15 03:35:11;;;;;;;20.15;12.15;;;-3.30;99.90;;;;;;4936771;28;20034;-82
2022/12/15 03:37:38;;;;;;;21.80;11.77;;;-3.30;99.90;;;;;;4931927;29;20082;-81
2022/12/15 03:40:04;;;;;;;22.50;13.77;;;-3.30;99.90;;;;;;4953082;28;20039;-81
2022/12/15 03:42:48;;;;;;;18.30;12.30;;;-3.30;99.90;;;;;;4952736;28;20090;-81
2022/12/15 03:45:19;;;;;;;24.65;13.73;;;-3.10;99.90;;;;;;4951439;28;20063;-81
2022/12/15 03:48:05;;;;;;;18.75;12.85;;;-2.90;99.90;;;;;;4951310;28;20046;-82
2022/12/15 03:50:31;;;;;;;;;;;-3.20;99.90;;;;;;4935004;29;20035;-81
2022/12/15 03:52:59;;;;;;;20.92;11.43;;;-3.30;99.90;;;;;;4932567;29;19918;-81
2022/12/15 03:55:27;;;;;;;16.52;11.13;;;-3.00;99.90;;;;;;4952615;28;20035;-81
2022/12/15 03:57:53;;;;;;;22.35;11.98;;;-3.40;99.90;;;;;;4934914;29;20375;-81
2022/12/15 04:00:20;;;;;;;16.85;11.15;;;-3.30;99.90;;;;;;4947314;28;20030;-81
2022/12/15 04:02:47;;;;;;;19.52;11.75;;;-3.30;99.90;;;;;;4952409;28;20574;-81
2022/12/15 04:05:24;;;;;;;19.23;11.80;;;-3.20;99.90;;;;;;4951163;28;20117;-81
2022/12/15 04:07:50;;;;;;;19.65;12.00;;;-2.80;99.90;;;;;;4949770;28;20501;-81
2022/12/15 04:10:16;;;;;;;20.40;12.52;;;-3.10;99.90;;;;;;4968097;28;20560;-81
2022/12/15 04:12:41;;;;;;;21.42;13.20;;;-2.90;99.90;;;;;;4935644;29;20035;-81
2022/12/15 04:15:09;;;;;;;18.15;12.10;;;-3.00;99.90;;;;;;4950760;28;20043;-81
2022/12/15 04:17:35;;;;;;;21.08;10.88;;;-3.10;99.90;;;;;;4949631;28;20039;-81
2022/12/15 04:20:10;;;;;;;17.17;12.05;;;-3.00;99.90;;;;;;4931334;29;20062;-81
2022/12/15 04:22:46;;;;;;;18.50;11.40;;;-3.10;99.90;;;;;;4947004;28;20125;-80
2022/12/15 05:33:58;;;;;;;19.58;11.77;;;-2.90;99.90;;;;;;4944073;28;20110;-83
2022/12/15 05:36:26;;;;;;;20.17;11.77;;;-2.90;99.90;;;;;;4930813;28;20038;-82
2022/12/15 05:38:52;;;;;;;20.08;10.93;;;-2.90;99.90;;;;;;4945569;28;20343;-81
2022/12/15 05:41:19;;;;;;;19.52;11.40;;;-2.90;99.90;;;;;;4942642;28;20039;-82
2022/12/15 05:43:45;;;;;;;18.55;11.25;;;-3.00;99.90;;;;;;4928059;29;20086;-82
2022/12/15 05:46:17;;;;;;;17.08;11.07;;;-2.60;99.90;;;;;;4926737;28;20043;-83
2022/12/15 05:48:43;;;;;;;20.15;10.63;;;-3.00;99.90;;;;;;4947538;28;20039;-86
2022/12/15 05:51:10;;;;;;;16.10;11.05;;;-3.00;99.90;;;;;;4941506;28;20046;-84
2022/12/15 05:53:37;;;;;;;16.75;9.73;;;-3.00;99.90;;;;;;4947662;28;20070;-84
2022/12/15 05:56:07;;;;;;;17.02;9.77;;;-3.10;99.90;;;;;;4945358;28;20043;-84
2022/12/15 05:58:33;;;;;;;17.20;10.57;;;-3.10;99.90;;;;;;4929149;29;20058;-82
2022/12/15 06:01:15;;;;;;;16.80;10.55;;;-3.10;99.90;;;;;;4967161;28;20126;-82
2022/12/15 06:03:50;;;;;;;15.20;10.65;;;-3.10;99.90;;;;;;4933572;29;20043;-83
2022/12/15 06:06:19;;;;;;;15.70;9.48;;;-3.10;99.90;;;;;;4948573;28;20367;-84
2022/12/15 06:08:45;;;;;;;18.63;10.77;;;-3.10;99.90;;;;;;4948893;28;20070;-82
2022/12/15 06:11:15;;;;;;;21.92;10.65;;;-3.10;99.90;;;;;;4945215;28;20065;-78
2022/12/15 06:13:45;;;;;;;18.25;10.32;;;-2.60;99.90;;;;;;4945930;28;20466;-84
2022/12/15 06:16:26;;;;;;;14.57;10.60;;;-3.10;99.90;;;;;;4946089;28;20471;-83
2022/12/15 06:18:54;;;;;;;20.75;9.75;;;-3.10;99.90;;;;;;4948071;28;20055;-83
2022/12/15 06:21:24;;;;;;;20.85;10.57;;;-3.10;99.90;;;;;;4946663;29;20040;-83
2022/12/15 06:27:44;;;;;;;;;;;;;;;;;;;;;
2022/12/15 06:30:10;;;;;;;16.42;9.60;;;-3.10;99.90;;;;;;4931530;29;20047;-84
2022/12/15 06:32:39;;;;;;;19.98;9.52;;;-3.20;99.90;;;;;;4932924;29;20043;-85
2022/12/15 06:36:02;;;;;;;24.85;10.18;;;-2.50;99.90;;;;;;4936392;28;20384;-84
2022/12/15 06:38:27;;;;;;;20.00;10.63;;;-3.10;99.90;;;;;;4908172;29;20140;-85
2022/12/15 06:41:37;;;;;;;17.60;9.50;;;-2.80;99.90;;;;;;4877536;29;20036;-85
2022/12/15 06:44:13;;;;;;;18.70;10.48;;;-3.00;99.90;;;;;;4948789;28;20036;-85
2022/12/15 06:47:35;;;;;;;22.48;10.25;;;-2.90;99.90;;;;;;4948929;29;20036;-84
2022/12/15 06:54:23;;;;;;;;;;;;;;;;;;;;;
2022/12/15 06:56:59;;;;;;;16.50;8.90;;;-2.60;99.90;;;;;;4870465;29;20060;-84
2022/12/15 06:59:31;;;;;;;15.43;9.57;;;-1.60;99.90;;;;;;4866066;29;20088;-83
2022/12/15 07:01:57;;;;;;;18.85;9.75;;;-2.50;99.90;;;;;;4950637;28;20070;-81
2022/12/15 07:04:31;;;;;;;15.98;10.20;;;-2.20;99.90;;;;;;4950197;29;20059;-83
2022/12/15 07:10:56;;;;;;;14.65;10.05;;;-2.40;99.90;;;;;;4839376;29;20132;-88
2022/12/15 07:13:22;;;;;;;20.38;9.82;;;-2.40;99.90;;;;;;4828017;28;20476;-85
2022/12/15 07:15:54;;;;;;;17.50;10.27;;;-2.40;99.90;;;;;;4943455;29;20035;-84
2022/12/15 07:18:36;;;;;;;21.95;9.40;;;-2.40;99.90;;;;;;4947173;28;20119;-85
2022/12/15 07:21:06;;;;;;;16.95;10.18;;;-2.30;99.90;;;;;;4932875;28;20044;-84
2022/12/15 07:23:52;;;;;;;17.48;9.95;;;-2.30;99.90;;;;;;4947590;28;20616;-85
2022/12/15 07:26:17;;;;;;;17.55;10.07;;;-2.30;99.90;;;;;;4933162;29;20043;-83
2022/12/15 07:28:49;;;;;;;17.85;9.82;;;-2.30;99.90;;;;;;4934617;29;20457;-84
2022/12/15 07:31:15;;;;;;;16.55;10.27;;;-2.00;99.90;;;;;;4949035;28;20410;-83
2022/12/15 07:33:42;;;;;;;15.07;9.73;;;-2.30;99.90;;;;;;4933734;28;20048;-82
2022/12/15 07:36:08;;;;;;;20.77;10.30;;;-2.30;99.90;;;;;;4919262;28;20031;-85
2022/12/15 07:38:35;;;;;;;14.15;9.23;;;-2.40;99.90;;;;;;4916959;29;20055;-86
2022/12/15 07:41:09;;;;;;;16.35;9.57;;;-2.30;99.90;;;;;;4917936;29;20043;-83
2022/12/15 07:43:38;;;;;;;15.00;9.38;;;-2.40;99.90;;;;;;4946612;29;20058;-85
2022/12/15 07:46:05;;;;;;;15.88;9.57;;;-2.40;99.90;;;;;;4930227;28;20062;-79
2022/12/15 07:48:56;;;;;;;20.52;9.73;;;-2.30;99.90;;;;;;4946659;28;20569;-85
2022/12/15 07:51:22;;;;;;;15.43;9.95;;;-2.30;99.90;;;;;;4946281;28;20047;-83
2022/12/15 07:53:51;;;;;;;19.83;9.68;;;-2.00;99.90;;;;;;4933172;28;20043;-84
2022/12/15 07:56:18;;;;;;;16.08;9.65;;;-2.30;99.90;;;;;;4920474;28;20035;-82
2022/12/15 07:58:43;;;;;;;15.65;9.40;;;-2.30;99.90;;;;;;4947736;28;20082;-82
2022/12/15 08:01:16;;;;;;;16.73;10.48;;;-2.40;99.90;;;;;;4947695;28;21272;-83
2022/12/15 08:03:42;;;;;;;16.33;10.43;;;-2.20;99.90;;;;;;4964815;28;20043;-84
2022/12/15 08:06:13;;;;;;;18.40;10.02;;;-2.20;99.90;;;;;;4949149;28;20500;-83
2022/12/15 08:08:45;;;;;;;14.10;9.35;;;-2.30;99.90;;;;;;4924891;28;20110;-83
2022/12/15 08:11:13;;;;;;;14.13;9.82;;;-2.40;99.90;;;;;;4931003;29;20043;-83
2022/12/15 08:13:40;;;;;;;15.98;9.32;;;-2.30;99.90;;;;;;4948964;28;20402;-83
2022/12/15 08:16:07;;;;;;;14.05;8.93;;;-2.30;99.90;;;;;;4943679;28;20044;-83
2022/12/15 08:18:57;;;;;;;18.50;9.93;;;-1.90;99.90;;;;;;4951111;28;20123;-83
2022/12/15 08:21:22;;;;;;;17.92;8.98;;;-2.30;99.90;;;;;;4930161;29;20089;-84
2022/12/15 08:23:49;;;;;;;20.27;8.88;;;-2.30;99.90;;;;;;4931384;29;20074;-83
2022/12/15 08:26:16;;;;;;;19.20;9.45;;;-1.80;99.90;;;;;;4947978;28;20051;-83
2022/12/15 08:29:22;;;;;;;17.38;9.57;;;-2.20;99.90;;;;;;4932473;29;20065;-83
2022/12/15 08:31:50;;;;;;;15.82;8.85;;;-2.20;99.90;;;;;;4931454;29;20055;-83
2022/12/15 08:34:15;;;;;;;17.10;9.35;;;-2.10;99.90;;;;;;4933183;29;20047;-83
2022/12/15 08:37:05;;;;;;;21.38;9.43;;;-2.00;99.90;;;;;;4949266;29;20050;-84
2022/12/15 08:39:31;;;;;;;15.38;8.40;;;-2.00;99.90;;;;;;4947217;28;20043;-84
2022/12/15 08:42:00;;;;;;;15.05;8.98;;;-2.00;99.90;;;;;;4944303;29;20046;-85
2022/12/15 08:44:26;;;;;;;15.07;8.57;;;-1.90;99.90;;;;;;4930235;28;20035;-83
2022/12/15 08:46:58;;;;;;;12.50;9.10;;;-1.90;99.90;;;;;;4948555;29;20538;-85
2022/12/15 08:49:24;;;;;;;16.70;9.23;;;-1.80;99.90;;;;;;4941493;28;20058;-83
2022/12/15 08:51:52;;;;;;;15.25;8.45;;;-1.80;99.90;;;;;;4945012;28;20051;-85
2022/12/15 08:54:19;;;;;;;17.85;8.77;;;-1.70;99.90;;;;;;4947616;28;20105;-84
2022/12/15 08:56:45;;;;;;;16.52;9.32;;;-1.70;99.90;;;;;;4930587;29;20039;-83
2022/12/15 08:59:24;;;;;;;13.40;8.50;;;-1.70;99.90;;;;;;4943858;28;20054;-84
2022/12/15 09:02:00;;;;;;;14.50;8.65;;;-1.20;99.90;;;;;;4926763;29;20599;-83
2022/12/15 09:04:39;;;;;;;14.35;9.35;;;-1.50;99.90;;;;;;4945363;28;20050;-84
2022/12/15 09:07:05;;;;;;;15.40;8.57;;;-1.30;99.90;;;;;;4947531;29;20035;-83
2022/12/15 09:09:36;;;;;;;12.95;8.38;;;-1.40;99.90;;;;;;4945001;28;20042;-84
2022/12/15 09:12:23;;;;;;;13.15;8.13;;;-1.40;99.90;;;;;;4924821;29;20051;-84
2022/12/15 09:15:13;;;;;;;14.32;9.25;;;-0.10;99.90;;;;;;4944506;28;20106;-84
2022/12/15 09:17:39;;;;;;;13.95;8.88;;;-1.30;99.90;;;;;;4928949;29;20082;-84
2022/12/15 09:20:06;;;;;;;14.82;8.32;;;-1.30;99.90;;;;;;4941345;28;20182;-83
2022/12/15 09:22:31;;;;;;;13.55;8.13;;;-1.20;99.90;;;;;;4943898;28;20521;-84
2022/12/15 09:24:59;;;;;;;21.58;8.93;;;-1.20;99.90;;;;;;4946894;29;20039;-83
2022/12/15 09:27:26;;;;;;;16.15;8.57;;;-1.10;99.90;;;;;;4926705;29;20035;-84
2022/12/15 09:29:51;;;;;;;13.27;8.15;;;-1.10;99.90;;;;;;4942882;29;20058;-84
2022/12/15 09:32:17;;;;;;;14.93;8.38;;;-0.10;99.90;;;;;;4944283;28;20039;-83
2022/12/15 09:34:43;;;;;;;13.15;8.63;;;-0.90;99.90;;;;;;4946325;28;20754;-83
2022/12/15 09:37:08;;;;;;;10.88;8.20;;;-1.00;99.90;;;;;;4929194;29;20079;-84
2022/12/15 09:43:22;;;;;;;12.40;7.50;;;-0.90;99.90;;;;;;4927730;29;20127;-85
2022/12/15 09:46:07;;;;;;;14.65;8.05;;;-0.80;99.90;;;;;;4941898;28;20043;-84
2022/12/15 09:48:41;;;;;;;15.00;8.70;;;-0.70;99.90;;;;;;4943129;28;20043;-84
2022/12/15 09:55:54;;;;;;;12.88;8.00;;;-0.60;99.90;;;;;;4943699;28;20066;-83
2022/12/15 09:59:34;;;;;;;14.73;8.82;;;-1.70;99.90;;;;;;4946943;28;20038;-81
2022/12/15 10:02:54;;;;;;;14.65;7.90;;;-0.40;99.90;;;;;;4962480;28;20039;-82
2022/12/15 10:06:18;;;;;;;14.10;7.38;;;-0.40;99.90;;;;;;4946483;28;20042;-81
2022/12/15 10:10:09;;;;;;;14.30;8.25;;;-0.30;99.90;;;;;;4934135;28;20758;-81
2022/12/15 10:35:33;;;;;;;9.93;6.53;;;0.30;99.90;;;;;;4943877;28;20067;-82
2022/12/15 10:38:07;;;;;;;10.05;6.20;;;0.40;99.90;;;;;;4924868;28;20046;-82
2022/12/15 10:52:11;;;;;;;7.05;5.70;;;0.80;99.90;;;;;;4943379;28;20062;-86
2022/12/15 11:07:22;;;;;;;8.93;5.45;;;1.30;99.90;;;;;;4832640;29;20490;-84
2022/12/15 11:14:42;;;;;;;14.70;5.60;;;1.20;99.90;;;;;;4834769;29;20572;-81
2022/12/15 11:22:12;;;;;;;10.25;4.40;;;2.50;99.90;;;;;;4801630;29;20573;-85
2022/12/15 11:24:52;;;;;;;11.18;4.75;;;2.80;99.90;;;;;;4808717;29;20057;-84
2022/12/15 11:31:05;;;;;;;9.73;4.90;;;3.30;99.90;;;;;;4784432;29;20042;-85
2022/12/15 11:33:31;;;;;;;9.05;4.70;;;3.50;99.90;;;;;;4855361;29;20053;-85
2022/12/15 11:36:15;;;;;;;10.38;5.15;;;3.60;99.90;;;;;;4850700;28;20595;-85
2022/12/15 11:39:20;;;;;;;11.45;5.03;;;3.50;99.90;;;;;;4937308;29;20035;-85
2022/12/15 11:42:01;;;;;;;9.95;5.63;;;3.40;99.90;;;;;;4933404;29;20051;-85
2022/12/15 11:44:38;;;;;;;10.73;5.10;;;3.40;99.90;;;;;;4930856;29;20079;-86
2022/12/15 11:47:28;;;;;;;9.05;5.22;;;3.40;99.90;;;;;;4932008;29;20671;-86
2022/12/15 11:50:29;;;;;;;7.60;5.03;;;3.30;99.90;;;;;;4930398;29;20050;-85
2022/12/15 11:53:22;;;;;;;8.30;5.47;;;3.20;99.90;;;;;;4935074;29;20047;-87
2022/12/15 11:56:16;;;;;;;8.52;4.78;;;3.30;99.90;;;;;;4935888;29;20058;-87
2022/12/15 11:59:01;;;;;;;11.02;5.05;;;3.20;99.90;;;;;;4947526;28;20042;-87
2022/12/15 12:01:36;;;;;;;9.13;5.28;;;3.20;99.90;;;;;;4951220;28;20417;-89
2022/12/15 12:07:43;;;;;;;11.63;5.47;;;3.10;99.90;;;;;;4952116;28;20046;-85
2022/12/15 12:10:21;;;;;;;9.65;5.38;;;3.20;99.90;;;;;;4934944;29;20043;-86
2022/12/15 12:13:01;;;;;;;8.65;5.63;;;3.00;99.90;;;;;;4984635;28;20072;-86
2022/12/15 12:16:04;;;;;;;9.38;5.90;;;3.60;99.90;;;;;;4936224;29;20454;-84
2022/12/15 12:18:36;;;;;;;9.40;5.35;;;3.00;99.90;;;;;;4931273;29;20039;-84
2022/12/15 12:21:08;;;;;;;11.18;5.55;;;3.00;99.90;;;;;;4937436;29;20039;-84
2022/12/15 12:23:38;;;;;;;11.27;5.38;;;3.00;99.90;;;;;;4965432;28;20135;-85
2022/12/15 12:26:30;;;;;;;15.20;6.25;;;2.90;99.90;;;;;;4948339;28;20043;-83
2022/12/15 12:29:06;;;;;;;9.10;6.55;;;2.90;99.90;;;;;;4933904;29;20039;-83
2022/12/15 12:31:54;;;;;;;11.15;5.90;;;2.90;99.90;;;;;;4953625;29;20098;-85
2022/12/15 12:34:46;;;;;;;12.27;6.30;;;2.80;99.90;;;;;;4925923;29;20819;-84
2022/12/15 12:37:35;;;;;;;10.80;5.63;;;2.90;99.90;;;;;;4951862;29;20043;-83
2022/12/15 12:40:17;;;;;;;13.00;6.00;;;2.90;99.90;;;;;;4931675;29;20035;-83
2022/12/15 12:42:54;;;;;;;9.85;5.80;;;2.90;99.90;;;;;;4932352;28;20043;-84
2022/12/15 12:45:27;;;;;;;12.77;6.75;;;3.00;99.90;;;;;;4934609;28;20402;-87
2022/12/15 12:47:58;;;;;;;10.07;5.25;;;3.00;99.90;;;;;;4964374;28;20043;-84
2022/12/15 12:50:26;;;;;;;14.27;5.60;;;3.00;99.90;;;;;;4956228;28;20450;-84
2022/12/15 12:52:56;;;;;;;12.27;5.43;;;3.00;99.90;;;;;;4947649;29;20066;-83
2022/12/15 12:55:41;;;;;;;12.07;6.03;;;2.90;99.90;;;;;;4946881;29;20106;-84
2022/12/15 12:58:32;;;;;;;11.90;5.90;;;2.80;99.90;;;;;;4948842;29;20039;-84
2022/12/15 13:01:09;;;;;;;11.88;6.00;;;2.80;99.90;;;;;;4929444;28;20045;-85
2022/12/15 13:03:41;;;;;;;8.57;5.10;;;2.80;99.90;;;;;;4933419;29;20093;-83
2022/12/15 13:06:39;;;;;;;13.35;6.57;;;2.80;99.90;;;;;;4937456;29;20035;-83
2022/12/15 13:09:20;;;;;;;7.35;5.40;;;2.80;99.90;;;;;;4903570;29;20052;-84
2022/12/15 13:11:51;;;;;;;8.15;5.45;;;2.80;99.90;;;;;;4937815;29;20534;-84
2022/12/15 13:14:43;;;;;;;13.95;6.63;;;2.70;99.90;;;;;;4934654;29;20038;-84
2022/12/15 13:17:24;;;;;;;12.10;6.15;;;2.80;99.90;;;;;;4944693;29;20510;-84
2022/12/15 13:19:59;;;;;;;10.45;5.53;;;2.80;99.90;;;;;;4932363;29;20039;-85
2022/12/15 13:22:30;;;;;;;10.57;6.28;;;2.70;99.90;;;;;;4930867;29;20047;-85
2022/12/15 13:24:59;;;;;;;14.55;6.97;;;2.80;99.90;;;;;;4950821;29;20541;-84
2022/12/15 13:27:35;;;;;;;10.35;6.10;;;2.70;99.90;;;;;;4950114;29;20063;-83
2022/12/15 13:30:05;;;;;;;12.10;5.95;;;2.70;99.90;;;;;;4947389;28;20039;-84
2022/12/15 13:32:38;;;;;;;9.95;6.20;;;2.70;99.90;;;;;;4969097;28;20050;-83
2022/12/15 13:35:13;;;;;;;10.85;5.80;;;2.70;99.90;;;;;;4937136;29;20461;-83
2022/12/15 13:38:01;;;;;;;11.00;5.97;;;2.70;99.90;;;;;;4938003;29;20074;-85
2022/12/15 13:40:36;;;;;;;12.90;6.10;;;2.60;99.90;;;;;;4937679;29;20129;-84
2022/12/15 13:43:05;;;;;;;16.70;6.32;;;2.70;99.90;;;;;;4936629;28;20953;-83
2022/12/15 13:45:50;;;;;;;13.07;5.30;;;2.70;99.90;;;;;;4926997;29;20122;-84
2022/12/15 13:48:16;;;;;;;10.90;6.15;;;2.70;99.90;;;;;;4919323;29;20032;-84
2022/12/15 13:50:56;;;;;;;10.95;6.38;;;2.90;99.90;;;;;;4932562;29;20039;-87
2022/12/15 13:53:24;;;;;;;12.13;6.10;;;2.70;99.90;;;;;;4929841;29;20039;-85
2022/12/15 13:56:03;;;;;;;12.05;6.57;;;2.70;99.90;;;;;;4933873;29;20494;-86
2022/12/15 13:58:38;;;;;;;10.45;6.43;;;2.60;99.90;;;;;;4934338;29;20062;-84
2022/12/15 14:01:18;;;;;;;12.05;5.65;;;2.60;99.90;;;;;;4931287;29;20038;-86
2022/12/15 14:04:06;;;;;;;14.65;7.03;;;2.70;99.90;;;;;;4933367;28;20039;-86
2022/12/15 14:06:38;;;;;;;12.82;7.03;;;2.60;99.90;;;;;;4934851;29;20042;-85
2022/12/15 14:09:08;;;;;;;11.55;6.47;;;2.70;99.90;;;;;;4929536;29;20065;-87
2022/12/15 14:11:55;;;;;;;13.27;6.03;;;2.70;99.90;;;;;;4934501;29;20409;-87
2022/12/15 14:14:26;;;;;;;;;;;2.60;99.90;;;;;;4928622;29;20490;-86
2022/12/15 14:17:01;;;;;;;13.43;6.05;;;2.60;99.90;;;;;;4948437;29;19922;-85
2022/12/15 14:19:43;;;;;;;10.05;6.35;;;2.60;99.90;;;;;;4930515;29;20160;-87
2022/12/15 14:22:28;;;;;;;9.95;6.78;;;2.60;99.90;;;;;;4967459;28;20035;-85
2022/12/15 14:25:18;;;;;;;12.35;6.45;;;2.50;99.90;;;;;;4930370;29;20443;-86
2022/12/15 14:27:44;;;;;;;14.13;7.55;;;2.50;99.90;;;;;;4962450;28;20121;-85
2022/12/15 14:30:28;;;;;;;15.02;7.43;;;2.40;99.90;;;;;;4932869;29;21535;-85
2022/12/15 14:33:07;;;;;;;11.93;7.13;;;2.70;99.90;;;;;;4951106;29;20163;-84
2022/12/15 14:35:49;;;;;;;15.48;7.13;;;2.30;99.90;;;;;;4930170;29;20043;-85
2022/12/15 14:38:21;;;;;;;10.73;7.18;;;2.20;99.90;;;;;;4932831;29;20367;-85
2022/12/15 14:40:56;;;;;;;15.13;8.23;;;2.20;99.90;;;;;;4929745;28;20043;-86
2022/12/15 14:43:31;;;;;;;10.00;7.47;;;2.20;99.90;;;;;;4930858;29;20043;-87
2022/12/15 14:46:07;;;;;;;12.47;7.97;;;2.20;99.90;;;;;;4927234;28;20039;-86
2022/12/15 14:48:36;;;;;;;10.68;7.43;;;2.10;99.90;;;;;;4941501;28;20047;-85
2022/12/15 14:51:04;;;;;;;15.35;8.25;;;2.00;99.90;;;;;;4949448;28;20043;-87
2022/12/15 14:56:59;;;;;;;12.48;7.28;;;2.00;99.90;;;;;;4965315;28;20075;-85
2022/12/15 14:59:30;;;;;;;12.45;8.30;;;1.90;99.90;;;;;;4932295;29;20451;-86
2022/12/15 15:02:18;;;;;;;14.98;9.00;;;2.90;99.90;;;;;;4932673;28;20032;-85
2022/12/15 15:04:53;;;;;;;11.65;7.93;;;2.10;99.90;;;;;;4950501;28;20364;-86
2022/12/15 15:07:21;;;;;;;12.37;8.50;;;1.70;99.90;;;;;;4950923;29;20391;-86
2022/12/15 15:10:27;;;;;;;19.92;8.80;;;2.20;99.90;;;;;;4953326;28;20093;-87
2022/12/15 15:12:56;;;;;;;15.30;8.20;;;1.60;99.90;;;;;;4952254;28;20065;-87
2022/12/15 15:15:26;;;;;;;13.48;10.15;;;2.30;99.90;;;;;;4934097;29;20094;-86
2022/12/15 15:17:56;;;;;;;19.77;9.75;;;1.50;99.90;;;;;;4952874;28;20047;-86
2022/12/15 15:20:26;;;;;;;14.32;9.20;;;1.50;99.90;;;;;;4934984;29;20062;-86
2022/12/15 15:23:09;;;;;;;13.73;10.25;;;1.40;99.90;;;;;;4950891;28;20042;-87
2022/12/15 15:25:38;;;;;;;14.30;9.05;;;1.60;99.90;;;;;;4934470;29;20035;-87
2022/12/15 15:28:21;;;;;;;12.77;8.95;;;1.20;99.90;;;;;;4937389;29;20163;-86
2022/12/15 15:31:04;;;;;;;19.67;10.98;;;1.30;99.90;;;;;;4932961;29;20043;-85
2022/12/15 15:33:31;;;;;;;12.32;8.18;;;1.20;99.90;;;;;;4952665;28;20046;-86
2022/12/15 15:36:00;;;;;;;14.90;9.75;;;1.20;99.90;;;;;;4952609;29;20067;-86
2022/12/15 15:38:30;;;;;;;12.50;10.27;;;1.20;99.90;;;;;;4947298;28;20066;-86
2022/12/15 15:40:59;;;;;;;11.70;9.43;;;1.30;99.90;;;;;;4936544;29;20050;-86
2022/12/15 15:43:26;;;;;;;14.85;10.30;;;1.10;99.90;;;;;;4965534;28;20032;-85
2022/12/15 15:46:04;;;;;;;17.70;10.90;;;1.00;99.90;;;;;;4946503;28;20027;-86
2022/12/15 15:48:40;;;;;;;16.73;9.80;;;1.00;99.90;;;;;;4917503;28;20050;-86
2022/12/15 15:51:11;;;;;;;15.32;10.65;;;1.00;99.90;;;;;;4949446;28;20105;-88
2022/12/15 15:53:37;;;;;;;18.25;10.75;;;1.00;99.90;;;;;;4945660;28;20053;-89
2022/12/15 15:59:15;;;;;;;18.33;11.20;;;1.00;99.90;;;;;;4934283;23;20065;-87
2022/12/15 16:01:42;;;;;;;19.05;12.60;;;0.90;99.90;;;;;;4961343;28;21409;-84
2022/12/15 16:04:08;;;;;;;19.10;12.18;;;0.90;99.90;;;;;;4978302;28;20046;-86
2022/12/15 16:06:34;;;;;;;15.13;12.07;;;0.90;99.90;;;;;;4933997;28;21026;-84
2022/12/15 16:09:06;;;;;;;16.45;12.70;;;0.80;99.90;;;;;;4947654;28;20043;-85
2022/12/15 16:11:34;;;;;;;18.90;12.27;;;1.00;99.90;;;;;;4950985;28;20067;-85
2022/12/15 16:14:00;;;;;;;24.20;14.07;;;0.90;99.90;;;;;;4970307;28;20035;-84
2022/12/15 16:16:36;;;;;;;19.02;14.00;;;0.80;99.90;;;;;;4950104;28;20039;-85
2022/12/15 16:19:03;;;;;;;20.10;14.43;;;0.80;99.90;;;;;;4952623;28;20561;-85
2022/12/15 16:21:28;;;;;;;26.35;15.23;;;0.80;99.90;;;;;;4966021;28;20086;-85
2022/12/15 16:23:57;;;;;;;18.20;13.98;;;0.80;99.90;;;;;;4961785;28;20066;-85
2022/12/15 16:26:28;;;;;;;19.60;14.93;;;0.80;99.90;;;;;;4965245;28;20074;-84
2022/12/15 16:28:55;;;;;;;21.13;15.55;;;0.80;99.90;;;;;;4962183;28;20039;-85
2022/12/15 16:31:28;;;;;;;22.08;14.02;;;0.90;99.90;;;;;;4947511;28;20047;-85
2022/12/15 16:33:54;;;;;;;22.95;15.90;;;0.90;99.90;;;;;;4950283;28;20039;-84
2022/12/15 16:36:20;;;;;;;20.90;15.63;;;0.80;99.90;;;;;;4963010;28;20501;-84
2022/12/15 16:38:46;;;;;;;19.55;14.48;;;0.80;99.90;;;;;;4965817;28;20398;-85
2022/12/15 16:41:15;;;;;;;19.90;15.85;;;0.50;99.90;;;;;;4948214;28;20043;-85
2022/12/15 16:43:41;;;;;;;22.52;14.40;;;0.70;99.90;;;;;;4955531;28;20432;-84
2022/12/15 16:46:09;;;;;;;19.77;15.82;;;0.70;99.90;;;;;;4965042;28;20047;-84
2022/12/15 16:48:44;;;;;;;19.55;14.15;;;0.60;99.90;;;;;;4965564;28;20086;-86
2022/12/15 16:51:33;;;;;;;18.27;15.88;;;0.60;99.90;;;;;;4964135;28;20050;-85
2022/12/15 16:53:59;;;;;;;22.00;17.02;;;0.70;99.90;;;;;;4968013;28;20039;-85
2022/12/15 16:56:28;;;;;;;21.55;15.98;;;0.60;99.90;;;;;;4952763;28;20051;-86
2022/12/15 16:58:55;;;;;;;22.15;15.35;;;0.60;99.90;;;;;;4955636;28;20073;-86
2022/12/15 17:01:21;;;;;;;20.10;15.73;;;0.60;99.90;;;;;;4948683;28;20090;-86
2022/12/15 17:03:47;;;;;;;20.70;16.48;;;0.50;99.90;;;;;;4944735;28;20082;-86
2022/12/15 17:06:15;;;;;;;24.55;15.77;;;0.50;99.90;;;;;;4975447;28;20051;-85
2022/12/15 17:08:51;;;;;;;23.38;16.38;;;0.60;99.90;;;;;;4966051;28;20047;-85
2022/12/15 17:11:25;;;;;;;22.48;16.70;;;0.50;99.90;;;;;;4963089;28;20093;-85